TimeCDT,TemperatureF,Dew PointF,Humidity,Sea Level PressureIn,VisibilityMPH,Wind Direction,Wind SpeedMPH,Gust SpeedMPH,PrecipitationIn,Events,Conditions,WindDirDegrees,DateUTC
12:54 AM,59.0,54.0,83,30.09,10.0,SSE,3.5,-,N/A,,Overcast,150,2012-10-10 05:54:00
1:54 AM,60.1,53.1,78,30.07,10.0,SSE,8.1,-,N/A,,Overcast,150,2012-10-10 06:54:00
2:54 AM,60.1,54.0,80,30.07,10.0,Calm,Calm,-,N/A,,Overcast,0,2012-10-10 07:54:00
3:54 AM,60.1,54.0,80,30.08,10.0,Calm,Calm,-,N/A,,Overcast,0,2012-10-10 08:54:00
4:54 AM,57.9,53.1,84,30.09,10.0,SSE,3.5,-,N/A,,Scattered Clouds,160,2012-10-10 09:54:00
5:54 AM,59.0,54.0,83,30.11,10.0,Calm,Calm,-,N/A,,Mostly Cloudy,0,2012-10-10 10:54:00
6:54 AM,60.1,55.0,83,30.13,10.0,South,3.5,-,N/A,,Overcast,170,2012-10-10 11:54:00
7:54 AM,61.0,55.9,83,30.14,10.0,Calm,Calm,-,N/A,,Overcast,0,2012-10-10 12:54:00
8:54 AM,64.0,57.0,78,30.16,10.0,Calm,Calm,-,N/A,,Overcast,0,2012-10-10 13:54:00
9:54 AM,66.0,57.9,75,30.17,10.0,Calm,Calm,-,N/A,,Overcast,0,2012-10-10 14:54:00
10:54 AM,69.1,59.0,70,30.19,10.0,NNW,5.8,-,N/A,,Overcast,330,2012-10-10 15:54:00
11:54 AM,72.0,59.0,64,30.19,10.0,NW,5.8,-,N/A,,Mostly Cloudy,310,2012-10-10 16:54:00
12:54 PM,77.0,62.1,60,30.17,10.0,WNW,3.5,-,N/A,,Partly Cloudy,290,2012-10-10 17:54:00
1:54 PM,78.1,62.1,58,30.13,10.0,NNW,6.9,-,N/A,,Partly Cloudy,330,2012-10-10 18:54:00
2:54 PM,79.0,62.1,56,30.12,10.0,NNE,6.9,-,N/A,,Mostly Cloudy,20,2012-10-10 19:54:00
3:54 PM,79.0,61.0,54,30.11,10.0,North,4.6,-,N/A,,Scattered Clouds,350,2012-10-10 20:54:00
4:54 PM,78.1,61.0,56,30.12,10.0,North,6.9,-,N/A,,Scattered Clouds,10,2012-10-10 21:54:00
5:54 PM,73.9,61.0,64,30.12,10.0,NNE,5.8,-,N/A,,Scattered Clouds,20,2012-10-10 22:54:00
6:54 PM,69.1,61.0,75,30.13,10.0,North,4.6,-,N/A,,Clear,360,2012-10-10 23:54:00
7:54 PM,66.0,60.1,81,30.15,10.0,North,8.1,-,N/A,,Clear,360,2012-10-11 00:54:00
8:54 PM,64.0,57.9,80,30.17,10.0,North,5.8,-,N/A,,Clear,10,2012-10-11 01:54:00
9:54 PM,63.0,57.9,84,30.19,10.0,NE,5.8,-,N/A,,Clear,40,2012-10-11 02:54:00
10:54 PM,63.0,57.9,84,30.20,10.0,NE,5.8,-,N/A,,Clear,40,2012-10-11 03:54:00
11:54 PM,63.0,57.9,84,30.18,10.0,NE,8.1,-,N/A,,Clear,40,2012-10-11 04:54:00